New Pine Creek, Oregon
Current Conditions -  °F | °C
As of 12:35 AM on Friday 31 Oct 2014 (Local Time) from KLKV Reporting Station
Broken Clouds Broken Clouds  
Wind Chill: 52°   Ceiling: 8000
Heat Index: 52°   Visibility: 0.75mi
Dew Point: 30°   Wind: 12mph
Humidity: 44%   Direction: 170°S
Pressure: 29.88"   Gusts: NA
Location:  42°N, 120.3°W
Report Text: KLKV 310735Z AUTO 17010KT 3/4SM BKN080 11/M01 A2988 RMK AO1
Loading
Personal Weather Stations






























Interactive Weather Map
Tropical Storm Tracking
New forecast layout! Learn more

10-Day Weather Forecast

Advertisements
Track Severe Weather on mobile